3MI2 weather

South Fox Island Airport
Northport, Michigan, United States

Public forecast

Using degrees Fahrenheit for public forecast. Weather courtesy of forecast.io.

Closest aviation weather report (METAR) to South Fox Island Airport

Closest report is Beaver Island Airport, 20.8 nm (38.5 km) NNE. Retrieved 2020/07/08 04:35 UTC (56 seconds ago):

KSJX 080435Z AUTO 00000KT 3/4SM BR VV005 18/18 A2996 RMK AO2 VIS 1/4V5 T01760176

Closest aviation forecast (TAF) to South Fox Island Airport

Closest forecast is Cherry Capital Airport, 40.9 nm (75.7 km) SSE. Retrieved 2020-07-08 00:42 UTC (4 hours ago):

TAF KTVC 072340Z 0800/0824 03008KT P6SM SCT180 FM080100 VRB03KT P6SM BKN180 FM080600 VRB03KT P6SM SCT250 FM081600 16004KT P6SM FEW050 FM081900 03006KT P6SM SCT050